createdAt,value
2022-12-08T00:02:49.845Z,16.30
2022-12-08T00:06:11.099Z,16.33
2022-12-08T00:09:39.653Z,17.60
2022-12-08T00:12:42.163Z,17.95
2022-12-08T00:15:44.464Z,17.85
2022-12-08T00:18:46.828Z,15.93
2022-12-08T00:21:49.321Z,17.70
2022-12-08T00:24:51.559Z,18.90
2022-12-08T00:27:53.779Z,17.13
2022-12-08T00:30:55.997Z,15.35
2022-12-08T00:33:59.138Z,16.93
2022-12-08T00:37:01.474Z,17.10
2022-12-08T00:40:04.502Z,15.15
2022-12-08T00:43:06.822Z,18.67
2022-12-08T00:46:09.876Z,20.13
2022-12-08T00:49:12.707Z,19.60
2022-12-08T00:52:15.050Z,19.25
2022-12-08T00:55:17.400Z,19.45
2022-12-08T00:58:19.641Z,20.05
2022-12-08T01:01:22.036Z,18.85
2022-12-08T01:04:24.721Z,20.17
2022-12-08T01:07:28.112Z,19.45
2022-12-08T01:10:32.798Z,18.52
2022-12-08T01:13:38.596Z,19.35
2022-12-08T01:16:41.892Z,19.52
2022-12-08T01:19:45.122Z,18.67
2022-12-08T01:22:47.464Z,18.67
2022-12-08T01:25:49.774Z,20.30
2022-12-08T01:28:52.493Z,19.95
2022-12-08T01:31:54.720Z,21.63
2022-12-08T01:34:56.971Z,20.80
2022-12-08T01:37:59.205Z,21.25
2022-12-08T01:41:01.553Z,23.42
2022-12-08T01:44:23.781Z,23.38
2022-12-08T01:47:33.476Z,20.67
2022-12-08T01:50:36.260Z,22.63
2022-12-08T01:53:39.225Z,22.23
2022-12-08T01:56:55.428Z,22.55
2022-12-08T02:00:11.563Z,23.40
2022-12-08T02:03:19.727Z,23.70
2022-12-08T02:06:22.135Z,21.40
2022-12-08T02:09:24.626Z,21.67
2022-12-08T02:12:26.912Z,23.77
2022-12-08T02:15:56.572Z,24.15
2022-12-08T02:19:29.887Z,23.77
2022-12-08T02:22:37.231Z,22.93
2022-12-08T02:25:42.245Z,22.92
2022-12-08T02:29:16.172Z,26.58
2022-12-08T02:32:43.230Z,25.63
2022-12-08T02:35:45.537Z,26.58
2022-12-08T02:38:56.975Z,23.77
2022-12-08T02:42:08.126Z,23.98
2022-12-08T02:45:31.849Z,22.95
2022-12-08T02:48:34.579Z,22.23
2022-12-08T02:51:36.853Z,22.20
2022-12-08T02:54:46.600Z,25.87
2022-12-08T02:58:09.843Z,25.35
2022-12-08T03:01:18.983Z,24.90
2022-12-08T03:04:36.436Z,24.02
2022-12-08T03:07:53.728Z,25.55
2022-12-08T03:11:10.553Z,25.07
2022-12-08T03:14:16.878Z,23.13
2022-12-08T03:17:22.231Z,23.13
2022-12-08T03:20:27.845Z,24.27
2022-12-08T03:23:30.777Z,24.80
2022-12-08T03:26:46.950Z,23.77
2022-12-08T03:29:52.029Z,24.15
2022-12-08T03:33:33.213Z,23.95
2022-12-08T03:36:35.483Z,23.48
2022-12-08T03:39:37.727Z,23.73
2022-12-08T03:42:39.985Z,24.17
2022-12-08T03:45:42.217Z,23.33
2022-12-08T03:48:44.784Z,22.58
2022-12-08T03:51:47.565Z,22.63
2022-12-08T03:54:49.899Z,21.60
2022-12-08T03:57:52.172Z,22.63
2022-12-08T04:00:54.408Z,20.30
2022-12-08T04:03:56.666Z,21.92
2022-12-08T04:06:59.035Z,20.20
2022-12-08T04:10:01.716Z,20.80
2022-12-08T04:13:04.287Z,21.10
2022-12-08T04:16:08.062Z,19.60
2022-12-08T04:19:10.371Z,23.92
2022-12-08T04:22:12.771Z,21.98
2022-12-08T04:25:15.149Z,22.48
2022-12-08T04:28:17.668Z,24.43
2022-12-08T04:31:19.909Z,23.65
2022-12-08T04:34:22.342Z,22.00
2022-12-08T04:37:24.582Z,23.35
2022-12-08T04:40:26.850Z,23.08
2022-12-08T04:43:29.438Z,24.33
2022-12-08T04:46:31.829Z,22.80
2022-12-08T04:49:34.165Z,23.23
2022-12-08T04:52:37.097Z,22.73
2022-12-08T04:55:44.228Z,23.42
2022-12-08T04:58:46.734Z,21.93
2022-12-08T05:01:49.123Z,22.50
2022-12-08T05:04:51.527Z,23.98
2022-12-08T05:07:53.837Z,22.02
2022-12-08T05:11:07.081Z,21.92
2022-12-08T05:14:11.640Z,21.83
2022-12-08T05:17:15.678Z,23.15
2022-12-08T05:20:18.148Z,22.33
2022-12-08T05:23:20.482Z,21.50
2022-12-08T05:26:22.884Z,22.25
2022-12-08T05:29:25.275Z,22.37
2022-12-08T05:32:27.578Z,22.13
2022-12-08T05:35:29.868Z,22.23
2022-12-08T05:38:32.265Z,22.60
2022-12-08T05:41:35.065Z,22.17
2022-12-08T05:44:37.316Z,21.50
2022-12-08T05:47:39.590Z,22.95
2022-12-08T05:50:49.987Z,23.20
2022-12-08T05:54:02.668Z,21.25
2022-12-08T05:57:05.473Z,23.70
2022-12-08T06:00:19.013Z,22.10
2022-12-08T06:03:22.361Z,22.20
2022-12-08T06:06:25.166Z,22.17
2022-12-08T06:09:27.532Z,21.10
2022-12-08T06:12:29.990Z,21.35
2022-12-08T06:15:34.794Z,20.73
2022-12-08T06:18:37.097Z,23.05
2022-12-08T06:21:42.439Z,23.95
2022-12-08T06:24:44.801Z,24.00
2022-12-08T06:27:47.034Z,23.83
2022-12-08T06:30:49.313Z,24.27
2022-12-08T06:33:58.753Z,24.65
2022-12-08T06:37:01.461Z,23.92
2022-12-08T06:40:04.304Z,25.27
2022-12-08T06:43:06.884Z,32.33
2022-12-08T06:46:12.677Z,24.07
2022-12-08T06:49:15.181Z,23.75
2022-12-08T06:52:17.396Z,27.35
2022-12-08T06:55:42.428Z,27.33
2022-12-08T06:58:46.115Z,28.00
2022-12-08T07:01:52.858Z,25.33
2022-12-08T07:04:55.248Z,25.50
2022-12-08T07:07:57.593Z,25.02
2022-12-08T07:10:59.910Z,24.60
2022-12-08T07:14:02.917Z,24.00
2022-12-08T07:17:05.304Z,24.43
2022-12-08T07:20:08.192Z,23.73
2022-12-08T07:23:10.626Z,24.80
2022-12-08T07:26:13.641Z,23.98
2022-12-08T07:29:15.866Z,29.90
2022-12-08T07:32:18.286Z,27.67
2022-12-08T07:35:20.689Z,26.38
2022-12-08T07:38:23.650Z,27.08
2022-12-08T07:41:26.843Z,25.48
2022-12-08T07:44:29.233Z,25.30
2022-12-08T07:47:31.662Z,23.90
2022-12-08T07:50:34.336Z,24.45
2022-12-08T07:53:36.574Z,26.80
2022-12-08T07:56:39.126Z,24.35
2022-12-08T07:59:41.475Z,25.50
2022-12-08T08:02:43.931Z,22.70
2022-12-08T08:05:48.285Z,25.83
2022-12-08T08:08:53.229Z,22.00
2022-12-08T08:12:22.312Z,21.25
2022-12-08T08:15:19.324Z,21.50
2022-12-08T08:18:21.701Z,21.80
2022-12-08T08:24:46.230Z,21.98
2022-12-08T08:27:48.962Z,22.27
2022-12-08T08:30:51.538Z,22.35
2022-12-08T08:33:55.055Z,22.80
2022-12-08T08:36:57.451Z,21.60
2022-12-08T08:39:59.887Z,23.13
2022-12-08T08:43:03.943Z,24.58
2022-12-08T08:46:07.032Z,26.10
2022-12-08T08:49:09.391Z,26.87
2022-12-08T08:52:11.714Z,24.05
2022-12-08T08:55:14.079Z,23.25
2022-12-08T08:58:17.135Z,23.75
2022-12-08T09:01:21.963Z,23.48
2022-12-08T09:04:25.698Z,21.93
2022-12-08T09:07:28.134Z,25.00
2022-12-08T09:10:30.455Z,21.60
2022-12-08T09:13:32.728Z,51.40
2022-12-08T09:16:40.440Z,22.58
2022-12-08T09:19:44.610Z,27.93
2022-12-08T09:22:47.041Z,21.02
2022-12-08T09:25:49.467Z,21.77
2022-12-08T09:28:55.076Z,27.35
2022-12-08T09:31:57.481Z,25.10
2022-12-08T09:34:59.830Z,20.17
2022-12-08T09:41:14.283Z,23.08
2022-12-08T09:44:22.266Z,20.60
2022-12-08T09:47:35.476Z,22.00
2022-12-08T09:50:45.474Z,23.47
2022-12-08T09:54:00.189Z,21.48
2022-12-08T09:57:11.200Z,24.92
2022-12-08T10:00:14.492Z,28.77
2022-12-08T10:03:17.222Z,24.33
2022-12-08T10:06:28.265Z,20.43
2022-12-08T10:09:53.186Z,19.67
2022-12-08T10:13:25.504Z,21.08
2022-12-08T10:16:44.482Z,21.00
2022-12-08T10:19:48.310Z,18.85
2022-12-08T10:23:13.820Z,26.00
2022-12-08T10:26:19.257Z,28.40
2022-12-08T10:29:21.571Z,28.33
2022-12-08T10:32:24.784Z,21.42
2022-12-08T10:35:47.065Z,21.05
2022-12-08T10:38:49.348Z,20.90
2022-12-08T10:41:51.790Z,21.20
2022-12-08T10:45:09.237Z,20.45
2022-12-08T10:48:22.441Z,19.60
2022-12-08T10:51:50.788Z,20.42
2022-12-08T10:54:54.300Z,21.80
2022-12-08T10:57:56.609Z,24.50
2022-12-08T11:01:03.173Z,23.42
2022-12-08T11:04:11.879Z,25.45
2022-12-08T11:07:22.777Z,24.58
2022-12-08T11:10:42.495Z,22.77
2022-12-08T11:13:45.006Z,22.13
2022-12-08T11:16:47.838Z,22.38
2022-12-08T11:20:09.494Z,21.42
2022-12-08T11:23:26.333Z,20.27
2022-12-08T11:26:33.732Z,46.20
2022-12-08T11:29:36.376Z,37.50
2022-12-08T11:32:42.780Z,26.00
2022-12-08T11:35:50.074Z,21.33
2022-12-08T11:38:57.220Z,20.60
2022-12-08T11:42:02.620Z,20.77
2022-12-08T11:45:13.848Z,22.90
2022-12-08T11:48:24.025Z,30.35
2022-12-08T11:51:40.895Z,21.45
2022-12-08T11:54:50.690Z,20.80
2022-12-08T11:57:57.304Z,18.97
2022-12-08T12:00:59.817Z,20.50
2022-12-08T12:04:40.029Z,21.08
2022-12-08T12:07:51.003Z,21.35
2022-12-08T12:11:02.171Z,24.40
2022-12-08T12:14:42.935Z,23.53
2022-12-08T12:18:03.625Z,22.60
2022-12-08T12:21:19.624Z,23.15
2022-12-08T12:24:36.135Z,22.33
2022-12-08T12:27:40.575Z,23.80
2022-12-08T12:31:13.679Z,23.70
2022-12-08T12:34:39.298Z,22.52
2022-12-08T12:37:43.259Z,22.15
2022-12-08T12:40:45.942Z,22.75
2022-12-08T12:44:12.839Z,21.90
2022-12-08T12:47:54.084Z,23.23
2022-12-08T12:50:58.260Z,22.05
2022-12-08T12:54:21.879Z,21.58
2022-12-08T12:57:35.363Z,21.85
2022-12-08T13:00:37.582Z,21.08
2022-12-08T13:03:48.594Z,20.83
2022-12-08T13:06:51.483Z,21.80
2022-12-08T13:10:10.906Z,21.90
2022-12-08T13:13:15.001Z,20.23
2022-12-08T13:16:23.624Z,20.52
2022-12-08T13:19:26.813Z,16.93
2022-12-08T13:22:54.152Z,15.52
2022-12-08T13:26:08.946Z,16.95
2022-12-08T13:29:17.544Z,16.70
2022-12-08T13:33:17.376Z,14.38
2022-12-08T13:36:28.784Z,12.80
2022-12-08T13:39:37.160Z,13.27
2022-12-08T13:42:44.556Z,15.75
2022-12-08T13:46:52.570Z,17.27
2022-12-08T13:51:23.722Z,16.55
2022-12-08T13:57:01.281Z,20.95
2022-12-08T13:59:44.692Z,16.17
2022-12-08T14:02:49.513Z,19.13
2022-12-08T14:09:18.883Z,15.67
2022-12-08T14:12:27.824Z,16.95
2022-12-08T14:15:37.800Z,18.10
2022-12-08T14:18:40.872Z,17.50
2022-12-08T14:21:47.964Z,17.92
2022-12-08T14:24:53.850Z,16.67
2022-12-08T14:28:01.287Z,16.73
2022-12-08T14:31:04.362Z,16.98
2022-12-08T14:34:06.649Z,15.30
2022-12-08T14:37:12.894Z,15.10
2022-12-08T14:40:36.342Z,15.97
2022-12-08T14:43:41.135Z,16.77
2022-12-08T14:47:05.701Z,16.63
2022-12-08T14:50:37.565Z,15.73
2022-12-08T14:53:43.631Z,16.70
2022-12-08T14:56:52.272Z,15.50
2022-12-08T14:59:54.608Z,14.75
2022-12-08T15:02:57.611Z,16.70
2022-12-08T15:06:05.182Z,15.65
2022-12-08T15:09:29.293Z,16.42
2022-12-08T15:12:33.447Z,19.40
2022-12-08T15:15:49.821Z,18.52
2022-12-08T15:19:18.717Z,18.90
2022-12-08T15:22:23.009Z,18.42
2022-12-08T15:25:25.839Z,15.77
2022-12-08T15:28:30.324Z,15.00
2022-12-08T15:31:32.966Z,16.08
2022-12-08T15:34:37.178Z,16.52
2022-12-08T15:37:39.686Z,16.02
2022-12-08T15:40:41.949Z,16.50
2022-12-08T15:43:44.228Z,17.07
2022-12-08T15:46:46.585Z,16.38
2022-12-08T15:49:50.513Z,16.45
2022-12-08T15:52:52.866Z,16.75
2022-12-08T15:56:26.313Z,16.15
2022-12-08T15:59:19.883Z,15.70
2022-12-08T16:02:23.078Z,17.15
2022-12-08T16:06:09.919Z,16.58
2022-12-08T16:09:06.054Z,17.27
2022-12-08T16:13:47.970Z,16.55
2022-12-08T16:16:07.575Z,15.87
2022-12-08T16:19:14.652Z,18.27
2022-12-08T16:26:16.209Z,16.77
2022-12-08T16:29:05.609Z,16.80
2022-12-08T16:32:07.947Z,16.60
2022-12-08T16:35:14.501Z,17.50
2022-12-08T16:38:17.631Z,26.50
2022-12-08T16:41:38.099Z,25.48
2022-12-08T16:44:42.142Z,26.38
2022-12-08T16:47:50.092Z,19.70
2022-12-08T16:50:53.969Z,20.40
2022-12-08T16:53:59.724Z,26.88
2022-12-08T16:57:01.916Z,26.88
2022-12-08T17:00:07.141Z,19.23
2022-12-08T17:03:14.019Z,19.93
2022-12-08T17:06:18.542Z,21.27
2022-12-08T17:09:20.935Z,20.33
2022-12-08T17:12:23.377Z,23.45
2022-12-08T17:15:26.286Z,43.42
2022-12-08T17:18:28.770Z,30.33
2022-12-08T17:21:31.005Z,39.67
2022-12-08T17:24:33.330Z,42.25
2022-12-08T17:27:36.449Z,43.70
2022-12-08T17:30:38.965Z,28.98
2022-12-08T17:33:41.781Z,28.83
2022-12-08T17:36:44.116Z,26.83
2022-12-08T17:39:46.494Z,23.38
2022-12-08T17:42:48.757Z,19.80
2022-12-08T17:45:51.154Z,19.13
2022-12-08T17:48:53.660Z,19.97
2022-12-08T17:52:00.567Z,19.20
2022-12-08T17:55:03.242Z,18.80
2022-12-08T17:58:06.101Z,18.27
2022-12-08T18:01:09.955Z,19.45
2022-12-08T18:04:12.978Z,52.47
2022-12-08T18:07:15.193Z,69.78
2022-12-08T18:10:18.517Z,26.85
2022-12-08T18:13:20.774Z,58.20
2022-12-08T18:16:25.894Z,40.35
2022-12-08T18:19:28.229Z,38.60
2022-12-08T18:22:30.535Z,17.77
2022-12-08T18:25:32.859Z,16.20
2022-12-08T18:28:36.331Z,17.08
2022-12-08T18:31:39.173Z,26.50
2022-12-08T18:34:42.696Z,20.33
2022-12-08T18:37:45.684Z,15.52
2022-12-08T18:40:48.059Z,16.00
2022-12-08T18:43:50.689Z,22.10
2022-12-08T18:46:53.000Z,19.10
2022-12-08T18:49:55.291Z,22.00
2022-12-08T18:52:57.802Z,20.30
2022-12-08T18:56:00.085Z,50.03
2022-12-08T18:59:08.793Z,82.20
2022-12-08T19:02:14.817Z,32.78
2022-12-08T19:05:17.255Z,21.80
2022-12-08T19:08:20.811Z,14.20
2022-12-08T19:11:26.440Z,37.42
2022-12-08T19:14:30.439Z,110.65
2022-12-08T19:17:33.089Z,50.38
2022-12-08T19:20:35.368Z,109.70
2022-12-08T19:23:38.079Z,154.25
2022-12-08T19:26:40.524Z,95.35
2022-12-08T19:29:42.798Z,46.63
2022-12-08T19:32:45.367Z,16.13
2022-12-08T19:35:52.776Z,13.53
2022-12-08T19:39:15.209Z,14.18
2022-12-08T19:42:39.454Z,13.70
2022-12-08T19:45:41.835Z,13.98
2022-12-08T19:48:44.309Z,13.48
2022-12-08T19:51:46.575Z,36.67
2022-12-08T19:54:48.815Z,21.50
2022-12-08T19:57:52.189Z,22.17
2022-12-08T20:00:54.915Z,16.35
2022-12-08T20:03:57.149Z,15.05
2022-12-08T20:06:59.512Z,13.17
2022-12-08T20:10:05.184Z,13.02
2022-12-08T20:13:27.447Z,17.02
2022-12-08T20:16:29.955Z,14.05
2022-12-08T20:19:32.408Z,13.32
2022-12-08T20:22:34.988Z,26.90
2022-12-08T20:25:42.808Z,16.45
2022-12-08T20:28:45.585Z,17.13
2022-12-08T20:31:48.031Z,16.23
2022-12-08T20:34:50.412Z,14.32
2022-12-08T20:37:52.666Z,14.60
2022-12-08T20:40:55.442Z,15.23
2022-12-08T20:43:57.816Z,14.27
2022-12-08T20:47:00.210Z,12.85
2022-12-08T20:50:04.855Z,14.27
2022-12-08T20:53:07.646Z,14.23
2022-12-08T20:56:17.971Z,15.55
2022-12-08T20:59:20.533Z,17.73
2022-12-08T21:02:23.011Z,14.45
2022-12-08T21:05:25.718Z,14.35
2022-12-08T21:08:28.673Z,14.67
2022-12-08T21:11:31.233Z,15.82
2022-12-08T21:14:34.014Z,15.65
2022-12-08T21:17:36.375Z,14.20
2022-12-08T21:20:38.845Z,14.75
2022-12-08T21:23:42.820Z,14.67
2022-12-08T21:26:45.297Z,15.13
2022-12-08T21:29:47.733Z,17.45
2022-12-08T21:32:50.150Z,14.82
2022-12-08T21:36:02.189Z,15.13
2022-12-08T21:39:11.218Z,13.80
2022-12-08T21:42:34.237Z,13.38
2022-12-08T21:45:37.129Z,11.85
2022-12-08T21:48:39.668Z,13.30
2022-12-08T21:51:42.380Z,15.60
2022-12-08T21:54:44.916Z,14.83
2022-12-08T21:57:47.617Z,16.20
2022-12-08T22:00:50.278Z,16.20
2022-12-08T22:03:52.809Z,15.93
2022-12-08T22:06:55.425Z,14.25
2022-12-08T22:09:57.845Z,15.57
2022-12-08T22:13:00.214Z,14.35
2022-12-08T22:16:06.157Z,15.20
2022-12-08T22:19:08.761Z,16.70
2022-12-08T22:22:11.003Z,14.68
2022-12-08T22:25:13.327Z,15.20
2022-12-08T22:28:16.306Z,15.35
2022-12-08T22:31:23.436Z,16.27
2022-12-08T22:34:25.696Z,14.73
2022-12-08T22:37:28.515Z,15.88
2022-12-08T22:40:30.676Z,15.60
2022-12-08T22:43:34.020Z,13.30
2022-12-08T22:46:37.621Z,16.52
2022-12-08T22:49:39.934Z,15.68
2022-12-08T22:52:42.228Z,16.45
2022-12-08T22:55:45.140Z,15.90
2022-12-08T22:58:47.782Z,12.27
2022-12-08T23:01:50.415Z,15.60
2022-12-08T23:04:57.278Z,12.95
2022-12-08T23:07:59.919Z,13.07
2022-12-08T23:11:02.261Z,15.10
2022-12-08T23:14:04.815Z,14.32
2022-12-08T23:17:07.269Z,14.30
2022-12-08T23:20:10.800Z,16.25
2022-12-08T23:23:13.570Z,16.00
2022-12-08T23:26:26.707Z,15.67
2022-12-08T23:29:29.282Z,13.15
2022-12-08T23:32:31.780Z,10.45
2022-12-08T23:35:34.115Z,11.40
2022-12-08T23:38:37.366Z,17.33
2022-12-08T23:41:39.690Z,17.80
2022-12-08T23:44:42.026Z,16.95
2022-12-08T23:47:44.630Z,13.63
2022-12-08T23:50:47.098Z,17.42
2022-12-08T23:53:49.414Z,15.82
2022-12-08T23:56:51.772Z,12.33
2022-12-08T23:59:54.060Z,16.55
